Weather at RNAS Fearn Air Base [CLOSED]

Public forecast

Using degrees Celsius for public forecast. Weather courtesy of forecast.io.

Closest aviation weather report (METAR) to RNAS Fearn Air Base

Closest report is Inverness Airport, 13.4 nm (24.8 km) SSW. Retrieved 2021/07/31 05:20 UTC (11 minutes ago):

EGPE 310520Z VRB02KT 9999 6000S -DZ SCT007 BKN017 11/10 Q1007

Closest aviation forecast (TAF) to RNAS Fearn Air Base

Forecast is more than 12 hours old.

Closest forecast is RAF Kinloss, 13.9 nm (25.7 km) ESE. Retrieved 2020/10/16 06:00 UTC (10 months ago):

TAF TAF EGQK 160658Z 1606/1624 CNL